Time;durP1;ratioP1;P1;durP2;ratioP2;P2;SDS_P1;SDS_P2;PMS_P1;PMS_P2;Temp;Humidity;BMP_temperature;BMP_pressure;BME280_temperature;BME280_humidity;BME280_pressure;Samples;Min_cycle;Max_cycle;Signal;HPM_P1;HPM_P2
2021/12/29 00:01:00;;;;;;;2.87;2.67;;;8.90;99.90;;;;;;4999771;28;20193;-68
2021/12/29 00:03:25;;;;;;;3.23;3.03;;;8.90;99.90;;;;;;4995336;28;20411;-68
2021/12/29 00:05:51;;;;;;;4.70;4.07;;;9.00;99.90;;;;;;4990587;28;20186;-69
2021/12/29 00:08:16;;;;;;;3.20;2.90;;;8.90;99.90;;;;;;4992395;28;20176;-71
2021/12/29 00:10:42;;;;;;;3.70;3.40;;;8.90;99.90;;;;;;4992709;28;20267;-68
2021/12/29 00:13:08;;;;;;;4.20;3.80;;;8.90;99.90;;;;;;4992228;28;20257;-69
2021/12/29 00:15:33;;;;;;;4.90;3.90;;;8.90;99.90;;;;;;4991670;28;20215;-68
2021/12/29 00:17:59;;;;;;;4.77;4.37;;;9.00;99.90;;;;;;4991961;28;20172;-68
2021/12/29 00:20:29;;;;;;;4.67;4.27;;;9.00;99.90;;;;;;4992258;28;20176;-68
2021/12/29 00:23:00;;;;;;;6.97;5.10;;;9.00;99.90;;;;;;4992069;28;20428;-68
2021/12/29 00:25:26;;;;;;;5.73;5.13;;;9.00;99.90;;;;;;4991642;28;20850;-67
2021/12/29 00:27:54;;;;;;;5.97;5.37;;;9.00;99.90;;;;;;4992015;28;20415;-68
2021/12/29 00:30:20;;;;;;;6.40;5.50;;;9.00;99.90;;;;;;4992130;28;20190;-68
2021/12/29 00:32:46;;;;;;;7.60;5.93;;;9.00;99.90;;;;;;4991918;28;20521;-68
2021/12/29 00:35:14;;;;;;;8.00;6.23;;;8.90;99.90;;;;;;4994686;28;20520;-68
2021/12/29 00:37:41;;;;;;;7.70;5.80;;;8.90;99.90;;;;;;4995370;28;20649;-69
2021/12/29 00:40:07;;;;;;;9.00;6.47;;;9.00;99.90;;;;;;4995354;28;20430;-68
2021/12/29 00:42:33;;;;;;;7.00;6.30;;;9.00;99.90;;;;;;4995854;28;20510;-69
2021/12/29 00:44:59;;;;;;;8.13;7.30;;;9.10;99.90;;;;;;4995984;28;20485;-68
2021/12/29 00:47:29;;;;;;;8.97;7.20;;;9.10;99.90;;;;;;4995459;28;20187;-68
2021/12/29 00:49:54;;;;;;;7.87;6.70;;;9.10;99.90;;;;;;4991503;28;20186;-67
2021/12/29 00:52:20;;;;;;;8.30;7.20;;;9.10;99.90;;;;;;4994217;28;20455;-69
2021/12/29 00:54:46;;;;;;;7.73;6.43;;;9.10;99.90;;;;;;4993669;28;20817;-69
2021/12/29 00:57:11;;;;;;;9.40;6.57;;;9.10;99.90;;;;;;4994363;28;20251;-69
2021/12/29 00:59:37;;;;;;;8.10;6.73;;;9.10;99.90;;;;;;5002045;28;20176;-68
2021/12/29 01:02:03;;;;;;;8.30;6.50;;;9.10;99.90;;;;;;5004200;28;20180;-67
2021/12/29 01:04:28;;;;;;;9.13;6.03;;;9.10;99.90;;;;;;5003107;28;20843;-69
2021/12/29 01:06:54;;;;;;;6.80;5.67;;;9.10;99.90;;;;;;5003690;28;20423;-69
2021/12/29 01:09:20;;;;;;;6.87;5.50;;;9.20;99.90;;;;;;4996686;28;20655;-69
2021/12/29 01:11:45;;;;;;;6.60;5.20;;;9.10;99.90;;;;;;4994956;28;20675;-69
2021/12/29 01:14:11;;;;;;;6.40;5.70;;;9.10;99.90;;;;;;4995116;28;20269;-70
2021/12/29 01:16:37;;;;;;;6.93;5.73;;;9.10;99.90;;;;;;4994845;28;20180;-69
2021/12/29 01:19:13;;;;;;;7.20;5.70;;;9.10;99.90;;;;;;4999968;28;20188;-70
2021/12/29 01:21:41;;;;;;;7.97;5.47;;;9.00;99.90;;;;;;4990389;28;20423;-69
2021/12/29 01:24:07;;;;;;;5.03;4.60;;;9.10;99.90;;;;;;4993429;28;20914;-69
2021/12/29 01:26:34;;;;;;;5.83;5.23;;;9.10;99.90;;;;;;4994704;28;20836;-70
2021/12/29 01:29:00;;;;;;;6.90;5.43;;;9.10;99.90;;;;;;4995040;28;20522;-69
2021/12/29 01:31:25;;;;;;;4.60;4.10;;;9.10;99.90;;;;;;4994537;28;20541;-69
2021/12/29 01:33:51;;;;;;;5.63;4.63;;;9.20;99.90;;;;;;4994557;28;20203;-70
2021/12/29 01:36:16;;;;;;;5.80;4.73;;;9.20;99.90;;;;;;4994026;28;20287;-69
2021/12/29 01:38:42;;;;;;;5.47;4.97;;;9.20;99.90;;;;;;4994805;28;20264;-68
2021/12/29 01:41:07;;;;;;;6.13;4.53;;;9.20;99.90;;;;;;4994762;28;20181;-69
2021/12/29 01:43:33;;;;;;;6.07;4.73;;;9.10;99.90;;;;;;4994505;28;20293;-68
2021/12/29 01:45:59;;;;;;;5.87;4.73;;;9.10;99.90;;;;;;4993729;28;20231;-68
2021/12/29 01:48:24;;;;;;;5.07;4.57;;;9.10;99.90;;;;;;4994352;28;20195;-68
2021/12/29 01:50:52;;;;;;;4.30;3.20;;;9.10;99.90;;;;;;4994798;28;20264;-69
2021/12/29 01:53:24;;;;;;;3.40;3.10;;;9.10;99.90;;;;;;4994265;28;20166;-69
2021/12/29 01:55:51;;;;;;;3.97;3.63;;;9.00;99.90;;;;;;4994007;28;20459;-70
2021/12/29 01:58:17;;;;;;;4.90;3.90;;;9.10;99.90;;;;;;4994438;28;20429;-70
2021/12/29 02:00:43;;;;;;;5.03;4.43;;;9.10;99.90;;;;;;4994213;28;20850;-68
2021/12/29 02:03:08;;;;;;;5.83;3.97;;;9.20;99.90;;;;;;4994010;28;20483;-69
2021/12/29 02:05:35;;;;;;;4.60;4.20;;;9.20;99.90;;;;;;4993672;28;20450;-69
2021/12/29 02:08:01;;;;;;;5.67;4.80;;;9.30;99.90;;;;;;4994062;28;20230;-68
2021/12/29 02:10:31;;;;;;;6.10;4.97;;;9.20;99.90;;;;;;4993853;28;20418;-70
2021/12/29 02:13:00;;;;;;;7.43;5.07;;;9.10;99.90;;;;;;4994078;28;20278;-70
2021/12/29 02:15:26;;;;;;;6.03;4.90;;;9.10;99.90;;;;;;4993354;28;20439;-67
2021/12/29 02:17:51;;;;;;;7.40;6.30;;;9.10;99.90;;;;;;4993759;28;20417;-68
2021/12/29 02:20:21;;;;;;;6.83;5.53;;;9.10;99.90;;;;;;4993888;28;20196;-69
2021/12/29 02:22:53;;;;;;;8.03;6.00;;;9.10;99.90;;;;;;4994050;28;20183;-70
2021/12/29 02:25:32;;;;;;;7.27;6.40;;;9.10;99.90;;;;;;4993490;28;20446;-70
2021/12/29 02:28:00;;;;;;;8.90;7.90;;;9.10;99.90;;;;;;4992910;28;20413;-69
2021/12/29 02:30:26;;;;;;;9.83;7.80;;;9.20;99.90;;;;;;4992503;28;20176;-70
2021/12/29 02:32:58;;;;;;;8.63;7.10;;;9.20;99.90;;;;;;4993475;28;20524;-69
2021/12/29 02:35:25;;;;;;;8.80;6.50;;;9.20;99.90;;;;;;4991843;28;20834;-69
2021/12/29 02:37:51;;;;;;;7.80;6.00;;;9.10;99.90;;;;;;4993035;28;20938;-69
2021/12/29 02:40:17;;;;;;;9.20;6.17;;;9.20;99.90;;;;;;4992996;28;20425;-69
2021/12/29 02:42:43;;;;;;;8.83;6.17;;;9.10;99.90;;;;;;4993294;28;20221;-69
2021/12/29 02:45:13;;;;;;;6.37;5.50;;;9.20;99.90;;;;;;4993422;28;20306;-69
2021/12/29 02:47:39;;;;;;;6.90;5.87;;;9.30;99.90;;;;;;4993072;28;20951;-69
2021/12/29 02:50:05;;;;;;;7.60;6.23;;;9.20;99.90;;;;;;4993112;28;20828;-69
2021/12/29 02:52:31;;;;;;;6.37;5.40;;;9.20;99.90;;;;;;4992947;28;20533;-69
2021/12/29 02:54:57;;;;;;;5.53;5.00;;;9.20;99.90;;;;;;4992750;28;20545;-70
2021/12/29 02:57:22;;;;;;;6.50;5.90;;;9.20;99.90;;;;;;4991783;28;20205;-70
2021/12/29 02:59:48;;;;;;;5.13;4.50;;;9.10;99.90;;;;;;4992813;28;20176;-69
2021/12/29 03:02:13;;;;;;;5.53;5.00;;;9.10;99.90;;;;;;4993042;28;20533;-69
2021/12/29 03:04:39;;;;;;;7.83;4.80;;;9.10;99.90;;;;;;4992856;28;20201;-69
2021/12/29 03:07:04;;;;;;;4.63;4.20;;;9.10;99.90;;;;;;4992552;28;20226;-70
2021/12/29 03:09:30;;;;;;;6.63;4.47;;;9.20;99.90;;;;;;4993247;28;20269;-70
2021/12/29 03:11:56;;;;;;;5.57;3.97;;;9.20;99.90;;;;;;4992577;28;20681;-69
2021/12/29 03:14:23;;;;;;;4.67;4.20;;;9.20;99.90;;;;;;4992689;28;20217;-69
2021/12/29 03:16:48;;;;;;;4.50;4.00;;;9.20;99.90;;;;;;4992723;28;20420;-70
2021/12/29 03:19:14;;;;;;;4.83;3.87;;;9.30;99.90;;;;;;4997809;28;20508;-69
2021/12/29 03:21:40;;;;;;;4.77;3.67;;;9.30;99.90;;;;;;4995133;28;20183;-70
2021/12/29 03:24:08;;;;;;;4.80;4.30;;;9.30;99.90;;;;;;4992479;28;20457;-69
2021/12/29 03:26:34;;;;;;;5.23;4.60;;;9.30;99.90;;;;;;4992582;28;20630;-70
2021/12/29 03:29:00;;;;;;;4.63;3.87;;;9.30;99.90;;;;;;4992829;28;20415;-67
2021/12/29 03:31:27;;;;;;;4.80;4.30;;;9.30;99.90;;;;;;4992135;28;20828;-68
2021/12/29 03:33:53;;;;;;;5.47;4.97;;;9.30;99.90;;;;;;4992383;28;20278;-68
2021/12/29 03:36:19;;;;;;;5.87;5.27;;;9.20;99.90;;;;;;4991827;28;20549;-69
2021/12/29 03:38:46;;;;;;;7.30;5.33;;;9.10;99.90;;;;;;4992704;28;20187;-68
2021/12/29 03:41:16;;;;;;;6.43;5.33;;;9.20;99.90;;;;;;4992304;28;20415;-68
2021/12/29 03:43:43;;;;;;;6.80;5.50;;;9.20;99.90;;;;;;4991823;28;20509;-68
2021/12/29 03:46:09;;;;;;;7.07;5.57;;;9.20;99.90;;;;;;4991904;28;20499;-68
2021/12/29 03:48:36;;;;;;;7.20;6.13;;;9.10;99.90;;;;;;4992435;28;20411;-69
2021/12/29 03:51:04;;;;;;;6.93;5.77;;;9.20;99.90;;;;;;4992253;28;20874;-69
2021/12/29 03:53:30;;;;;;;10.30;7.40;;;9.20;99.90;;;;;;4991765;28;20426;-69
2021/12/29 03:55:57;;;;;;;8.83;7.13;;;9.10;99.90;;;;;;4991809;28;20432;-69
2021/12/29 03:58:25;;;;;;;9.57;7.07;;;9.10;99.90;;;;;;4992191;28;20498;-69
2021/12/29 04:00:55;;;;;;;8.33;7.03;;;9.10;99.90;;;;;;4990903;28;20418;-68
2021/12/29 04:03:20;;;;;;;9.27;6.90;;;9.20;99.90;;;;;;4991718;28;20754;-68
2021/12/29 04:05:46;;;;;;;8.37;6.97;;;9.20;99.90;;;;;;4991337;28;20557;-69
2021/12/29 04:08:12;;;;;;;8.73;7.13;;;9.20;99.90;;;;;;4992540;28;20201;-69
2021/12/29 04:10:37;;;;;;;9.63;7.40;;;9.30;99.90;;;;;;4996125;28;20403;-68
2021/12/29 04:13:04;;;;;;;8.80;7.53;;;9.20;99.90;;;;;;4995925;28;20692;-68
2021/12/29 04:15:30;;;;;;;9.83;7.90;;;9.20;99.90;;;;;;4995171;28;20298;-68
2021/12/29 04:18:02;;;;;;;9.10;7.57;;;9.30;99.90;;;;;;4994825;28;20429;-69
2021/12/29 04:23:16;;;;;;;7.90;7.03;;;9.20;99.90;;;;;;4996157;28;20411;-68
2021/12/29 04:25:45;;;;;;;9.27;7.80;;;9.20;99.90;;;;;;4995124;28;20458;-68
2021/12/29 04:28:16;;;;;;;8.90;6.47;;;9.10;99.90;;;;;;4995586;28;20410;-69
2021/12/29 04:30:42;;;;;;;11.38;8.30;;;9.10;99.90;;;;;;4995539;28;20416;-69
2021/12/29 04:33:08;;;;;;;11.23;8.63;;;9.00;99.90;;;;;;4995658;28;20264;-69
2021/12/29 04:35:34;;;;;;;9.30;7.40;;;9.00;99.90;;;;;;4994962;28;20509;-68
2021/12/29 04:37:59;;;;;;;9.67;7.50;;;9.10;99.90;;;;;;4995739;28;20419;-69
2021/12/29 04:40:26;;;;;;;7.20;6.50;;;9.20;99.90;;;;;;4995221;28;20236;-68
2021/12/29 04:42:51;;;;;;;10.47;7.50;;;9.30;99.90;;;;;;4994537;28;20530;-69
2021/12/29 04:45:17;;;;;;;7.40;6.70;;;9.30;99.90;;;;;;4994057;28;20460;-68
2021/12/29 04:47:46;;;;;;;8.90;7.20;;;9.40;99.90;;;;;;4995098;28;20217;-68
2021/12/29 04:50:24;;;;;;;7.37;6.13;;;9.30;99.90;;;;;;4995237;28;20179;-69
2021/12/29 04:52:58;;;;;;;7.23;6.00;;;9.30;99.90;;;;;;4995444;28;20445;-69
2021/12/29 04:55:25;;;;;;;8.33;6.83;;;9.30;99.90;;;;;;4995039;28;20457;-68
2021/12/29 04:57:51;;;;;;;6.67;5.97;;;9.20;99.90;;;;;;4995020;28;20420;-68
2021/12/29 05:00:21;;;;;;;7.73;6.23;;;9.20;99.90;;;;;;4994649;28;20497;-69
2021/12/29 05:02:47;;;;;;;8.60;7.30;;;9.20;99.90;;;;;;4995398;28;20172;-69
2021/12/29 05:05:22;;;;;;;7.23;5.20;;;9.20;99.90;;;;;;4995093;28;20971;-67
2021/12/29 05:10:33;;;;;;;6.20;4.90;;;9.20;99.90;;;;;;4995537;28;20410;-69
2021/12/29 05:12:58;;;;;;;6.90;5.30;;;9.20;99.90;;;;;;4994279;28;20477;-70
2021/12/29 05:15:24;;;;;;;5.03;3.73;;;9.30;99.90;;;;;;4994860;28;20434;-69
2021/12/29 05:17:50;;;;;;;5.63;3.70;;;9.30;99.90;;;;;;4994697;28;20267;-68
2021/12/29 05:20:15;;;;;;;3.80;3.50;;;9.20;99.90;;;;;;4993950;28;20302;-68
2021/12/29 05:22:41;;;;;;;7.40;4.10;;;9.00;99.90;;;;;;4994301;28;20230;-69
2021/12/29 05:25:06;;;;;;;3.40;3.03;;;9.00;99.90;;;;;;4995005;28;20708;-69
2021/12/29 05:27:32;;;;;;;3.70;3.30;;;9.00;99.90;;;;;;4994462;28;20263;-68
2021/12/29 05:30:02;;;;;;;5.00;4.50;;;9.10;99.90;;;;;;4994830;28;20176;-68
2021/12/29 05:32:30;;;;;;;7.13;6.00;;;9.00;99.90;;;;;;4994198;28;20243;-68
2021/12/29 05:34:56;;;;;;;7.60;6.37;;;9.00;99.90;;;;;;4994878;28;20932;-69
2021/12/29 05:37:21;;;;;;;8.40;7.40;;;9.10;99.90;;;;;;4992954;28;20428;-69
2021/12/29 05:39:46;;;;;;;9.57;8.40;;;9.10;99.90;;;;;;4994565;28;20460;-69
2021/12/29 05:42:12;;;;;;;9.83;8.13;;;9.10;99.90;;;;;;4994142;28;20632;-68
2021/12/29 05:44:38;;;;;;;12.20;8.80;;;9.10;99.90;;;;;;4994120;28;20282;-69
2021/12/29 05:47:03;;;;;;;8.97;8.07;;;9.10;99.90;;;;;;4993966;28;20230;-69
2021/12/29 05:49:29;;;;;;;12.27;8.90;;;9.10;99.90;;;;;;4994520;28;20182;-68
2021/12/29 05:51:54;;;;;;;11.43;9.83;;;9.10;99.90;;;;;;4994100;28;20283;-68
2021/12/29 05:54:20;;;;;;;11.30;9.80;;;9.10;99.90;;;;;;5016671;23;20219;-69
2021/12/29 05:56:45;;;;;;;12.67;10.17;;;9.10;99.90;;;;;;5028939;28;20219;-69
2021/12/29 05:59:11;;;;;;;13.90;10.47;;;9.10;99.90;;;;;;5031408;28;20203;-69
2021/12/29 06:01:37;;;;;;;13.37;10.80;;;9.10;99.90;;;;;;5033898;28;20192;-69
2021/12/29 06:04:02;;;;;;;15.57;11.43;;;9.00;99.90;;;;;;5033808;28;20171;-69
2021/12/29 06:06:28;;;;;;;13.27;9.97;;;9.00;99.90;;;;;;5014016;28;20233;-69
2021/12/29 06:08:54;;;;;;;13.57;10.80;;;9.00;99.90;;;;;;5013926;28;20175;-69
2021/12/29 06:11:19;;;;;;;13.27;10.47;;;9.00;99.90;;;;;;5014040;28;20624;-69
2021/12/29 06:13:45;;;;;;;16.40;11.77;;;9.00;99.90;;;;;;5013946;28;20306;-69
2021/12/29 06:16:10;;;;;;;17.03;12.00;;;9.00;99.90;;;;;;5014562;28;20230;-69
2021/12/29 06:18:36;;;;;;;16.17;12.50;;;9.10;99.90;;;;;;5013804;28;20254;-68
2021/12/29 06:21:01;;;;;;;18.10;15.40;;;9.10;99.90;;;;;;5012798;28;20412;-68
2021/12/29 06:23:27;;;;;;;15.80;12.67;;;9.10;99.90;;;;;;5013971;28;20298;-69
2021/12/29 06:25:52;;;;;;;15.30;12.23;;;9.10;99.90;;;;;;5030432;28;20244;-68
2021/12/29 06:28:18;;;;;;;14.87;11.63;;;9.10;99.90;;;;;;5033541;28;20210;-69
2021/12/29 06:30:43;;;;;;;16.43;11.97;;;9.10;99.90;;;;;;5014907;28;20177;-69
2021/12/29 06:33:09;;;;;;;14.80;11.87;;;9.10;99.90;;;;;;5027084;28;20205;-69
2021/12/29 06:35:34;;;;;;;15.10;10.97;;;9.10;99.90;;;;;;5016328;28;20256;-69
2021/12/29 06:38:00;;;;;;;15.33;12.60;;;9.10;99.90;;;;;;5022901;28;20560;-69
2021/12/29 06:40:25;;;;;;;15.43;12.03;;;9.10;99.90;;;;;;5025919;28;20591;-69
2021/12/29 06:42:51;;;;;;;17.57;11.87;;;9.10;99.90;;;;;;5026043;28;20186;-69
2021/12/29 06:45:17;;;;;;;13.57;11.73;;;9.20;99.90;;;;;;5020212;28;20261;-69
2021/12/29 06:47:42;;;;;;;16.20;12.30;;;9.20;99.90;;;;;;5032994;28;20181;-69
2021/12/29 06:50:09;;;;;;;15.03;11.20;;;9.20;99.90;;;;;;5020637;28;20595;-69
2021/12/29 06:52:35;;;;;;;15.43;11.97;;;9.20;99.90;;;;;;5022917;28;20226;-69
2021/12/29 06:55:01;;;;;;;15.93;13.00;;;9.20;99.90;;;;;;5018875;28;20982;-69
2021/12/29 06:57:26;;;;;;;14.00;11.67;;;9.20;99.90;;;;;;5021740;28;20467;-70
2021/12/29 06:59:53;;;;;;;15.43;12.33;;;9.20;99.90;;;;;;5018520;28;20444;-69
2021/12/29 07:02:18;;;;;;;15.23;12.60;;;9.20;99.90;;;;;;5020830;28;20294;-70
2021/12/29 07:04:44;;;;;;;14.57;11.03;;;9.20;99.90;;;;;;5018373;28;20433;-68
2021/12/29 07:07:10;;;;;;;15.47;11.27;;;9.20;99.90;;;;;;5010207;28;20752;-67
2021/12/29 07:09:36;;;;;;;14.73;10.97;;;9.20;99.90;;;;;;5017089;28;20790;-68
2021/12/29 07:12:02;;;;;;;13.20;10.73;;;9.20;99.90;;;;;;5017506;28;20567;-68
2021/12/29 07:14:28;;;;;;;14.27;11.13;;;9.20;99.90;;;;;;5017079;28;20202;-68
2021/12/29 07:16:53;;;;;;;14.97;11.83;;;9.20;99.90;;;;;;5022538;28;20462;-68
2021/12/29 07:19:20;;;;;;;17.33;12.60;;;9.10;99.90;;;;;;5027878;28;20197;-67
2021/12/29 07:21:47;;;;;;;14.63;11.33;;;9.20;99.90;;;;;;5026478;28;20233;-69
2021/12/29 07:24:12;;;;;;;13.10;10.80;;;9.20;99.90;;;;;;5029974;28;20436;-69
2021/12/29 07:26:39;;;;;;;14.60;11.83;;;9.20;99.90;;;;;;5011523;28;20449;-68
2021/12/29 07:29:05;;;;;;;12.87;11.30;;;9.20;99.90;;;;;;5012051;28;20437;-68
2021/12/29 07:31:31;;;;;;;15.60;11.87;;;9.20;99.90;;;;;;5031623;28;20476;-68
2021/12/29 07:33:57;;;;;;;14.30;11.40;;;9.30;99.90;;;;;;5015637;28;20457;-68
2021/12/29 07:36:22;;;;;;;12.87;10.87;;;9.20;99.90;;;;;;5024623;28;20961;-69
2021/12/29 07:38:48;;;;;;;14.00;11.60;;;9.20;99.90;;;;;;5011908;28;20212;-68
2021/12/29 07:41:14;;;;;;;14.00;11.73;;;9.30;99.90;;;;;;5028451;28;20199;-68
2021/12/29 07:43:40;;;;;;;15.90;13.00;;;9.20;99.90;;;;;;5023121;28;20297;-67
2021/12/29 07:46:07;;;;;;;18.20;13.80;;;9.20;99.90;;;;;;5026484;28;20883;-69
2021/12/29 07:48:33;;;;;;;17.73;14.00;;;9.10;99.90;;;;;;5030178;28;20968;-69
2021/12/29 07:51:02;;;;;;;16.77;12.90;;;9.20;99.90;;;;;;5030186;28;20480;-68
2021/12/29 07:53:28;;;;;;;22.60;14.10;;;9.20;99.90;;;;;;5030476;28;20460;-69
2021/12/29 07:55:54;;;;;;;18.80;14.03;;;9.20;99.90;;;;;;5024774;28;20460;-68
2021/12/29 07:58:20;;;;;;;22.77;14.87;;;9.20;99.90;;;;;;5005896;28;20320;-68
2021/12/29 08:00:46;;;;;;;21.17;15.33;;;9.20;99.90;;;;;;5007767;28;20511;-69
2021/12/29 08:03:12;;;;;;;19.17;15.17;;;9.20;99.90;;;;;;5021793;28;20445;-69
2021/12/29 08:05:39;;;;;;;22.40;15.80;;;9.30;99.90;;;;;;5013850;28;20461;-68
2021/12/29 08:08:06;;;;;;;20.17;14.50;;;9.30;99.90;;;;;;5008718;28;20271;-68
2021/12/29 08:10:33;;;;;;;19.60;14.70;;;9.30;99.90;;;;;;5008672;28;20521;-68
2021/12/29 08:12:59;;;;;;;20.13;15.20;;;9.30;99.90;;;;;;5008138;28;20456;-68
2021/12/29 08:15:24;;;;;;;21.30;15.40;;;9.20;99.90;;;;;;5009401;28;20446;-68
2021/12/29 08:17:50;;;;;;;20.33;15.33;;;9.20;99.90;;;;;;5008542;28;20191;-68
2021/12/29 08:20:16;;;;;;;21.47;14.93;;;9.30;99.90;;;;;;5008676;28;20226;-68
2021/12/29 08:22:43;;;;;;;21.43;15.63;;;9.30;99.90;;;;;;5008603;28;20572;-67
2021/12/29 08:25:09;;;;;;;19.43;15.93;;;9.30;99.90;;;;;;5008517;28;20668;-68
2021/12/29 08:27:34;;;;;;;18.20;14.40;;;9.30;99.90;;;;;;5017624;28;20537;-67
2021/12/29 08:30:00;;;;;;;24.60;16.00;;;9.30;99.90;;;;;;5007213;28;20422;-67
2021/12/29 08:32:26;;;;;;;18.43;14.47;;;9.40;99.90;;;;;;5007494;28;20208;-67
2021/12/29 08:34:52;;;;;;;21.53;16.33;;;9.40;99.90;;;;;;5006339;28;20441;-66
2021/12/29 08:37:18;;;;;;;21.00;16.30;;;9.50;99.90;;;;;;5011104;28;20816;-66
2021/12/29 08:39:45;;;;;;;20.50;15.37;;;9.40;99.90;;;;;;5007191;28;20447;-67
2021/12/29 08:42:12;;;;;;;23.70;17.30;;;9.40;99.90;;;;;;5006546;28;20429;-67
2021/12/29 08:44:37;;;;;;;21.90;15.20;;;9.40;99.90;;;;;;5007081;28;20472;-67
2021/12/29 08:47:04;;;;;;;25.50;16.57;;;9.40;99.90;;;;;;5007542;28;20418;-67
2021/12/29 08:49:29;;;;;;;18.70;13.87;;;9.50;99.90;;;;;;5010409;28;20244;-68
2021/12/29 08:51:56;;;;;;;19.53;14.70;;;9.50;99.90;;;;;;5018345;28;20465;-67
2021/12/29 08:54:22;;;;;;;21.47;14.73;;;9.40;99.90;;;;;;5016399;28;20219;-67
2021/12/29 08:56:48;;;;;;;18.43;13.67;;;9.40;99.90;;;;;;5027320;28;20416;-67
2021/12/29 08:59:14;;;;;;;16.80;13.93;;;9.50;99.90;;;;;;5026096;28;20436;-67
2021/12/29 09:01:40;;;;;;;19.40;14.43;;;9.50;99.90;;;;;;5017172;28;20186;-67
2021/12/29 09:04:06;;;;;;;19.43;14.00;;;9.50;99.90;;;;;;5020981;28;20202;-67
2021/12/29 09:06:33;;;;;;;17.83;14.20;;;9.50;99.90;;;;;;5015976;28;20421;-68
2021/12/29 09:08:59;;;;;;;18.90;13.10;;;9.50;99.90;;;;;;5028576;28;20922;-68
2021/12/29 09:11:25;;;;;;;18.00;14.17;;;9.60;99.90;;;;;;5016252;28;20469;-67
2021/12/29 09:13:51;;;;;;;16.30;13.33;;;9.60;99.90;;;;;;5021497;28;20266;-67
2021/12/29 09:16:17;;;;;;;14.27;12.60;;;9.70;99.90;;;;;;5011738;28;20218;-68
2021/12/29 09:18:42;;;;;;;15.70;11.93;;;9.70;99.90;;;;;;5011583;28;20429;-67
2021/12/29 09:21:13;;;;;;;15.30;11.67;;;9.70;99.90;;;;;;5010527;28;20287;-67
2021/12/29 09:23:40;;;;;;;18.77;11.50;;;9.70;99.90;;;;;;5020242;28;20184;-68
2021/12/29 09:26:07;;;;;;;13.20;10.40;;;9.70;99.90;;;;;;5011747;28;20604;-67
2021/12/29 09:28:33;;;;;;;16.60;11.37;;;9.70;99.90;;;;;;5014608;28;21087;-67
2021/12/29 09:30:59;;;;;;;16.07;11.90;;;9.70;99.90;;;;;;5016843;28;20544;-68
2021/12/29 09:33:25;;;;;;;13.07;11.00;;;9.70;99.90;;;;;;5023962;28;20505;-67
2021/12/29 09:35:57;;;;;;;14.80;10.87;;;9.70;99.90;;;;;;5013206;28;20214;-67
2021/12/29 09:38:23;;;;;;;15.63;10.83;;;9.70;99.90;;;;;;5013714;28;20191;-68
2021/12/29 09:40:48;;;;;;;11.83;10.07;;;9.70;99.90;;;;;;5013817;28;20429;-67
2021/12/29 09:43:17;;;;;;;13.77;10.30;;;9.80;99.90;;;;;;5019454;28;20916;-67
2021/12/29 09:45:45;;;;;;;14.23;10.70;;;9.80;99.90;;;;;;5031327;28;20264;-68
2021/12/29 09:48:11;;;;;;;11.60;10.40;;;9.90;99.90;;;;;;5030168;28;20456;-68
2021/12/29 09:50:37;;;;;;;11.80;10.33;;;10.00;99.90;;;;;;5037078;28;20421;-68
2021/12/29 09:53:03;;;;;;;18.57;11.10;;;10.00;99.90;;;;;;5030317;28;20493;-69
2021/12/29 09:55:29;;;;;;;13.43;10.53;;;10.00;99.90;;;;;;5031588;28;20441;-68
2021/12/29 09:57:57;;;;;;;13.10;10.27;;;10.10;99.90;;;;;;5045007;28;20405;-69
2021/12/29 10:00:29;;;;;;;10.67;9.40;;;10.00;99.90;;;;;;5038327;28;20405;-72
2021/12/29 10:02:56;;;;;;;13.03;9.47;;;10.00;99.90;;;;;;5042083;28;20514;-68
2021/12/29 10:05:24;;;;;;;11.07;9.50;;;10.10;99.90;;;;;;5034638;28;20448;-68
2021/12/29 10:08:10;;;;;;;12.40;9.83;;;10.20;99.90;;;;;;5017960;28;20429;-68
2021/12/29 10:10:38;;;;;;;14.37;10.30;;;10.20;99.90;;;;;;5027410;28;20420;-68
2021/12/29 10:13:06;;;;;;;12.60;9.57;;;10.20;99.90;;;;;;5040171;28;20521;-69
2021/12/29 10:15:42;;;;;;;9.80;8.80;;;10.20;99.90;;;;;;5029721;28;20811;-67
2021/12/29 10:18:10;;;;;;;10.37;9.37;;;10.20;99.90;;;;;;5044369;28;20447;-68
2021/12/29 10:20:56;;;;;;;9.13;8.23;;;10.30;99.90;;;;;;5040243;28;20421;-69
2021/12/29 10:23:29;;;;;;;12.87;9.30;;;10.30;99.90;;;;;;5036371;28;20417;-66
2021/12/29 10:25:56;;;;;;;11.40;8.50;;;10.40;99.90;;;;;;5020356;28;21092;-69
2021/12/29 10:28:26;;;;;;;10.17;9.10;;;10.40;99.90;;;;;;5019131;28;20418;-68
2021/12/29 10:31:01;;;;;;;10.93;9.03;;;10.50;99.90;;;;;;5017881;28;20421;-69
2021/12/29 10:33:38;;;;;;;9.63;8.30;;;10.30;99.90;;;;;;5024513;28;20969;-70
2021/12/29 10:36:16;;;;;;;9.40;7.57;;;10.30;99.90;;;;;;5045725;28;20445;-69
2021/12/29 10:38:43;;;;;;;10.53;9.43;;;10.30;99.90;;;;;;5044973;28;20483;-69
2021/12/29 10:41:09;;;;;;;8.77;7.80;;;10.30;99.90;;;;;;5024618;28;20466;-68
2021/12/29 10:43:37;;;;;;;8.80;7.90;;;10.30;99.90;;;;;;5012034;28;20947;-69
2021/12/29 10:46:02;;;;;;;10.27;8.73;;;10.40;99.90;;;;;;5023572;28;20203;-68
2021/12/29 10:48:30;;;;;;;8.97;8.07;;;10.50;99.90;;;;;;5028480;28;20458;-68
2021/12/29 10:51:08;;;;;;;9.17;7.83;;;10.60;99.90;;;;;;5029934;28;20201;-68
2021/12/29 10:53:37;;;;;;;10.70;8.17;;;10.60;99.90;;;;;;5019964;28;20517;-68
2021/12/29 10:56:04;;;;;;;11.10;8.30;;;10.70;99.90;;;;;;5012674;28;20450;-69
2021/12/29 10:58:32;;;;;;;9.70;8.37;;;10.70;99.90;;;;;;5011089;28;20942;-68
2021/12/29 11:01:09;;;;;;;8.77;7.83;;;10.70;99.90;;;;;;5023524;28;20856;-69
2021/12/29 11:03:43;;;;;;;8.70;7.80;;;10.80;99.90;;;;;;5025606;28;20922;-69
2021/12/29 11:06:14;;;;;;;8.73;7.50;;;10.90;99.90;;;;;;5012739;28;20430;-68
2021/12/29 11:08:55;;;;;;;10.97;8.10;;;10.80;99.90;;;;;;5026744;28;20512;-69
2021/12/29 11:11:31;;;;;;;8.17;7.37;;;10.80;99.90;;;;;;5027593;28;20911;-68
2021/12/29 11:14:13;;;;;;;8.63;7.83;;;10.80;99.90;;;;;;5010678;28;20946;-68
2021/12/29 11:16:40;;;;;;;7.47;6.77;;;10.70;99.90;;;;;;5020842;28;20504;-70
2021/12/29 11:19:07;;;;;;;10.20;8.23;;;10.80;99.90;;;;;;5013075;28;20402;-69
2021/12/29 11:21:36;;;;;;;7.77;7.07;;;10.90;99.90;;;;;;5013091;28;20430;-68
2021/12/29 11:24:14;;;;;;;9.03;8.17;;;10.90;99.90;;;;;;5020224;28;20425;-68
2021/12/29 11:26:40;;;;;;;9.90;7.67;;;10.90;99.90;;;;;;5012495;28;20906;-67
2021/12/29 11:29:09;;;;;;;9.37;7.80;;;10.80;99.90;;;;;;5012586;28;20425;-68
2021/12/29 11:31:38;;;;;;;9.73;8.30;;;10.70;99.90;;;;;;5013067;28;20827;-69
2021/12/29 11:34:24;;;;;;;12.20;7.60;;;10.80;99.90;;;;;;5027229;28;20432;-69
2021/12/29 11:37:04;;;;;;;11.37;7.97;;;10.80;99.90;;;;;;5019118;28;20430;-69
2021/12/29 11:39:33;;;;;;;8.37;7.50;;;10.70;99.90;;;;;;5019438;28;20794;-69
2021/12/29 11:41:59;;;;;;;9.40;7.10;;;10.70;99.90;;;;;;5019937;28;20426;-69
2021/12/29 11:44:25;;;;;;;10.10;8.03;;;10.70;99.90;;;;;;5019267;28;20467;-68
2021/12/29 11:46:51;;;;;;;10.20;7.33;;;10.70;99.90;;;;;;5019576;28;20426;-68
2021/12/29 11:49:18;;;;;;;8.87;7.67;;;10.70;99.90;;;;;;5011668;28;20266;-68
2021/12/29 11:52:17;;;;;;;10.50;8.40;;;10.80;99.90;;;;;;5012120;28;20991;-69
2021/12/29 11:55:06;;;;;;;10.63;7.20;;;10.80;99.90;;;;;;5020108;28;20508;-69
2021/12/29 11:57:33;;;;;;;8.67;7.77;;;10.90;99.90;;;;;;5011987;28;20847;-68
2021/12/29 12:00:20;;;;;;;10.77;8.53;;;10.90;99.90;;;;;;5012206;28;20446;-69
2021/12/29 12:02:48;;;;;;;9.23;8.17;;;11.00;99.90;;;;;;5012323;28;20433;-69
2021/12/29 12:05:22;;;;;;;9.50;7.80;;;11.00;99.90;;;;;;5015515;28;20533;-68
2021/12/29 12:07:49;;;;;;;9.37;7.90;;;11.10;99.90;;;;;;5011102;28;20625;-69
2021/12/29 12:10:35;;;;;;;9.00;8.10;;;11.10;99.90;;;;;;5010151;28;20469;-69
2021/12/29 12:13:05;;;;;;;15.15;8.20;;;11.10;99.90;;;;;;5010001;28;20924;-68
2021/12/29 12:15:33;;;;;;;14.13;8.20;;;11.00;99.90;;;;;;5017231;28;20230;-68
2021/12/29 12:18:06;;;;;;;9.63;7.27;;;11.10;99.90;;;;;;5018908;28;21010;-70
2021/12/29 12:20:43;;;;;;;9.57;7.70;;;11.10;99.90;;;;;;5011457;28;20438;-69
2021/12/29 12:23:20;;;;;;;10.13;7.87;;;11.10;99.90;;;;;;5010756;28;20576;-68
2021/12/29 12:25:46;;;;;;;13.10;7.90;;;11.00;99.90;;;;;;5011346;28;21165;-68
2021/12/29 12:28:17;;;;;;;10.17;7.90;;;11.10;99.90;;;;;;5022353;28;20548;-69
2021/12/29 12:30:45;;;;;;;11.07;8.03;;;11.10;99.90;;;;;;5016000;28;20826;-68
2021/12/29 12:33:12;;;;;;;13.73;8.77;;;11.10;99.90;;;;;;5013363;28;20512;-69
2021/12/29 12:35:45;;;;;;;13.13;9.20;;;10.90;99.90;;;;;;5014638;28;20446;-69
2021/12/29 12:38:27;;;;;;;9.60;7.57;;;11.00;99.90;;;;;;5018682;28;20469;-68
2021/12/29 12:41:12;;;;;;;10.57;7.90;;;11.00;99.90;;;;;;5014864;28;20442;-67
2021/12/29 12:43:59;;;;;;;9.70;7.70;;;11.00;99.90;;;;;;5015835;28;20456;-68
2021/12/29 12:46:35;;;;;;;8.40;7.47;;;10.90;99.90;;;;;;5015228;28;20429;-68
2021/12/29 12:49:19;;;;;;;11.70;7.53;;;10.90;99.90;;;;;;5036022;28;20440;-68
2021/12/29 12:52:23;;;;;;;9.50;7.30;;;10.90;99.90;;;;;;5019694;28;20454;-67
2021/12/29 12:54:56;;;;;;;11.60;7.17;;;10.70;99.90;;;;;;4954648;28;20475;-67